If you wish to contribute or participate in the discussions about articles you are invited to join SKYbrary as a registered user

 Actions

Whitegrass Airport

From SKYbrary Wiki

NVVW
Airport
ICAO: NVVW – IATA: TAH
Summary
Name Whitegrass Airport
Region Asia and Pacific
Territory Vanuatu VU.gif
Location Whitegrass, Tafea province
Serving Tanna
Elevation 8.23 m <br />27 ft8.23 m <br />
Coordinates 19° 27' 18.00" S, 169° 13' 26.00" E
Runways
Designator Length Width Surface ROPS
15/33 1230 m4,035.433 ft <br /> 30 m98.425 ft <br /> ASP /


METAR
Observation NVVW 230300Z 14015KT 9999 BKN025 25/18 Q1015
Station WHITE GRASS
Date/Time 23 June 2021 03:00:00
Wind direction 140°
Wind speed 15 kts
Lowest cloud amount broken clouds
Temperature 25°C
Dew point 18°C
Humidity 65%
QNH 1015 hPa
Weather condition n/a

Whitegrass Airport, also known as White Grass Airport or Tanna Airport, is an airport on the island Tanna, in the Taféa province in Vanuatu.

Climatology

Tropical Rainforest climate (Köppen climate classification Af)

Maps

Terrain

Loading map...

Airport Layout

Loading map...


Accidents & Serious Incidents at or in vicinity of NVVW

None on SKYbrary